createdAt,value
2022-09-03T00:00:45.990Z,17.68
2022-09-03T00:07:01.214Z,17.50
2022-09-03T00:13:05.679Z,17.49
2022-09-03T00:19:08.417Z,17.64
2022-09-03T00:25:15.331Z,17.60
2022-09-03T00:31:26.838Z,17.55
2022-09-03T00:37:33.728Z,17.63
2022-09-03T00:43:55.684Z,17.56
2022-09-03T00:50:17.252Z,17.50
2022-09-03T00:56:27.948Z,17.52
2022-09-03T01:02:47.937Z,17.47
2022-09-03T01:09:12.307Z,17.59
2022-09-03T01:15:24.189Z,17.72
2022-09-03T01:21:52.697Z,17.75
2022-09-03T01:28:33.599Z,17.65
2022-09-03T01:35:01.625Z,17.59
2022-09-03T01:41:40.807Z,17.58
2022-09-03T01:47:57.831Z,17.65
2022-09-03T01:54:10.944Z,17.84
2022-09-03T02:00:26.421Z,17.67
2022-09-03T02:06:32.151Z,17.87
2022-09-03T02:12:38.590Z,18.04
2022-09-03T02:18:48.552Z,17.99
2022-09-03T02:24:52.345Z,18.28
2022-09-03T02:30:55.530Z,18.29
2022-09-03T02:36:58.075Z,18.24
2022-09-03T02:43:04.405Z,18.21
2022-09-03T02:49:07.413Z,18.35
2022-09-03T02:55:09.746Z,18.22
2022-09-03T03:01:23.802Z,18.14
2022-09-03T03:07:26.850Z,18.22
2022-09-03T03:13:30.156Z,18.31
2022-09-03T03:19:32.169Z,18.23
2022-09-03T03:25:37.169Z,18.09
2022-09-03T03:31:39.199Z,18.23
2022-09-03T03:37:41.285Z,18.17
2022-09-03T03:43:43.888Z,18.18
2022-09-03T03:49:46.406Z,18.27
2022-09-03T03:56:00.271Z,18.18
2022-09-03T04:02:04.020Z,18.16
2022-09-03T04:08:06.850Z,18.13
2022-09-03T04:14:08.930Z,18.24
2022-09-03T04:20:11.344Z,18.28
